Time;durP1;ratioP1;P1;durP2;ratioP2;P2;SDS_P1;SDS_P2;PMS_P1;PMS_P2;Temp;Humidity;BMP_temperature;BMP_pressure;BME280_temperature;BME280_humidity;BME280_pressure;Samples;Min_cycle;Max_cycle;Signal;HPM_P1;HPM_P2
2021/12/31 00:00:14;;;;;;;;;;;11.30;99.90;;;;;;5098434;28;19920;-81
2021/12/31 00:02:40;;;;;;;;;;;11.30;99.90;;;;;;5106479;28;20366;-80
2021/12/31 00:05:10;;;;;;;;;;;11.30;99.90;;;;;;5103979;28;19923;-81
2021/12/31 00:07:37;;;;;;;;;;;11.30;99.90;;;;;;5105981;28;19920;-81
2021/12/31 00:10:09;;;;;;;;;;;11.30;99.90;;;;;;5100714;28;19923;-81
2021/12/31 00:12:36;;;;;;;;;;;11.30;99.90;;;;;;5107269;28;20015;-80
2021/12/31 00:15:06;;;;;;;;;;;11.30;99.90;;;;;;5085734;28;20390;-80
2021/12/31 00:17:33;;;;;;;;;;;11.30;99.90;;;;;;5103966;28;20371;-80
2021/12/31 00:20:04;;;;;;;;;;;11.40;99.90;;;;;;5104928;28;19974;-80
2021/12/31 00:25:04;;;;;;;;;;;11.30;99.90;;;;;;5096440;28;19920;-80
2021/12/31 00:27:42;;;;;;;;;;;11.30;99.90;;;;;;5093750;28;20018;-80
2021/12/31 00:30:09;;;;;;;;;;;11.40;99.90;;;;;;5114621;28;20071;-80
2021/12/31 00:32:36;;;;;;;;;;;11.30;99.90;;;;;;5105574;28;19963;-80
2021/12/31 00:35:03;;;;;;;;;;;11.40;99.90;;;;;;5113005;28;19924;-80
2021/12/31 00:37:36;;;;;;;;;;;11.30;99.90;;;;;;5103822;27;20380;-80
2021/12/31 00:40:04;;;;;;;;;;;11.40;99.90;;;;;;5028543;28;1839748;-80
2021/12/31 00:42:31;;;;;;;;;;;11.40;99.90;;;;;;5093828;28;19971;-80
2021/12/31 00:44:58;;;;;;;;;;;11.40;99.90;;;;;;5094764;28;20543;-81
2021/12/31 00:47:24;;;;;;;;;;;11.40;99.90;;;;;;5093445;28;19970;-81
2021/12/31 00:49:52;;;;;;;;;;;11.40;99.90;;;;;;5093574;28;20014;-80
2021/12/31 00:52:19;;;;;;;;;;;11.50;99.90;;;;;;5096845;28;19928;-81
2021/12/31 00:54:45;;;;;;;;;;;11.50;99.90;;;;;;5113109;28;19924;-80
2021/12/31 00:57:12;;;;;;;;;;;11.50;99.90;;;;;;5109974;28;20014;-81
2021/12/31 00:59:40;;;;;;;;;;;11.50;99.90;;;;;;5093571;28;19938;-80
2021/12/31 01:02:07;;;;;;;;;;;11.60;99.90;;;;;;5096700;28;19924;-80
2021/12/31 01:04:36;;;;;;;;;;;11.60;99.90;;;;;;5101936;28;20007;-80
2021/12/31 01:07:03;;;;;;;;;;;11.60;99.90;;;;;;5094392;28;19924;-80
2021/12/31 01:09:30;;;;;;;;;;;11.50;99.90;;;;;;5102147;28;20010;-80
2021/12/31 01:12:05;;;;;;;;;;;11.60;99.90;;;;;;5109134;28;19983;-80
2021/12/31 01:14:38;;;;;;;;;;;11.60;99.90;;;;;;5102633;28;20394;-80
2021/12/31 01:17:08;;;;;;;;;;;11.50;99.90;;;;;;5108039;28;20388;-81
2021/12/31 01:19:46;;;;;;;;;;;11.50;99.90;;;;;;5101880;28;19923;-80
2021/12/31 01:22:16;;;;;;;;;;;11.50;99.90;;;;;;5099985;28;19924;-80
2021/12/31 01:24:43;;;;;;;;;;;11.50;99.90;;;;;;5099105;28;19934;-81
2021/12/31 01:27:10;;;;;;;;;;;11.50;99.90;;;;;;5112956;28;19930;-81
2021/12/31 01:29:40;;;;;;;;;;;11.50;99.90;;;;;;5110160;28;20670;-80
2021/12/31 01:32:07;;;;;;;;;;;11.60;99.90;;;;;;5092642;28;19963;-80
2021/12/31 01:34:34;;;;;;;;;;;11.60;99.90;;;;;;5100733;28;21457;-80
2021/12/31 01:37:01;;;;;;;;;;;11.60;99.90;;;;;;5110578;28;19969;-80
2021/12/31 01:39:28;;;;;;;;;;;11.60;99.90;;;;;;5091402;28;20533;-78
2021/12/31 01:41:57;;;;;;;;;;;11.60;99.90;;;;;;5114236;27;19924;-80
2021/12/31 01:44:33;;;;;;;;;;;11.60;99.90;;;;;;5094375;28;19931;-80
2021/12/31 01:47:04;;;;;;;;;;;11.60;99.90;;;;;;5097898;28;19925;-80
2021/12/31 01:49:36;;;;;;;;;;;11.60;99.90;;;;;;5094486;28;19932;-80
2021/12/31 01:52:04;;;;;;;;;;;11.60;99.90;;;;;;5094333;28;19924;-80
2021/12/31 01:54:31;;;;;;;;;;;11.60;99.90;;;;;;5109718;28;19967;-80
2021/12/31 01:57:00;;;;;;;;;;;11.60;99.90;;;;;;5104248;28;19930;-79
2021/12/31 01:59:28;;;;;;;;;;;11.60;99.90;;;;;;5094013;28;19934;-80
2021/12/31 02:01:55;;;;;;;;;;;11.60;99.90;;;;;;5093311;28;19923;-80
2021/12/31 02:04:22;;;;;;;;;;;11.60;99.90;;;;;;5101630;28;20012;-80
2021/12/31 02:06:49;;;;;;;;;;;11.60;99.90;;;;;;5092310;28;19931;-81
2021/12/31 02:09:16;;;;;;;;;;;11.60;99.90;;;;;;5102552;28;19920;-80
2021/12/31 02:11:42;;;;;;;;;;;11.60;99.90;;;;;;5092912;28;19926;-80
2021/12/31 02:14:09;;;;;;;;;;;11.50;99.90;;;;;;5102336;28;20015;-79
2021/12/31 02:16:36;;;;;;;;;;;11.50;99.90;;;;;;5097589;28;19920;-80
2021/12/31 02:19:10;;;;;;;;;;;11.50;99.90;;;;;;5110153;28;19920;-79
2021/12/31 02:21:37;;;;;;;;;;;11.50;99.90;;;;;;5098029;27;20375;-80
2021/12/31 02:24:21;;;;;;;;;;;11.50;99.90;;;;;;5127014;27;20010;-78
2021/12/31 02:26:52;;;;;;;;;;;11.50;99.90;;;;;;5118466;27;20275;-80
2021/12/31 02:29:21;;;;;;;;;;;11.50;99.90;;;;;;5112997;27;19920;-79
2021/12/31 02:31:52;;;;;;;;;;;11.50;99.90;;;;;;5097410;28;19927;-79
2021/12/31 02:34:19;;;;;;;;;;;11.50;99.90;;;;;;5111683;28;20327;-79
2021/12/31 02:36:47;;;;;;;;;;;11.50;99.90;;;;;;5108096;28;19927;-79
2021/12/31 02:39:14;;;;;;;;;;;11.50;99.90;;;;;;5108231;28;19951;-79
2021/12/31 02:41:40;;;;;;;;;;;11.50;99.90;;;;;;5098859;28;19959;-78
2021/12/31 02:44:07;;;;;;;;;;;11.50;99.90;;;;;;5103493;28;20015;-79
2021/12/31 02:46:34;;;;;;;;;;;11.50;99.90;;;;;;5092035;28;20006;-79
2021/12/31 02:49:01;;;;;;;;;;;11.50;99.90;;;;;;5095830;28;20445;-79
2021/12/31 02:51:28;;;;;;;;;;;11.50;99.90;;;;;;5099243;28;19971;-80
2021/12/31 02:53:56;;;;;;;;;;;11.50;99.90;;;;;;5109442;28;19966;-80
2021/12/31 02:56:23;;;;;;;;;;;11.50;99.90;;;;;;5098430;28;19951;-80
2021/12/31 02:58:51;;;;;;;;;;;11.60;99.90;;;;;;5101409;28;19927;-79
2021/12/31 03:01:18;;;;;;;;;;;11.60;99.90;;;;;;5101067;28;20378;-80
2021/12/31 03:03:47;;;;;;;;;;;11.60;99.90;;;;;;5091601;28;19969;-81
2021/12/31 03:06:15;;;;;;;;;;;11.50;99.90;;;;;;5094529;28;20546;-80
2021/12/31 03:08:44;;;;;;;;;;;11.60;99.90;;;;;;5110988;28;20014;-80
2021/12/31 03:11:10;;;;;;;;;;;11.60;99.90;;;;;;5110255;28;19924;-80
2021/12/31 03:13:38;;;;;;;;;;;11.60;99.90;;;;;;5093229;28;19934;-80
2021/12/31 03:16:13;;;;;;;;;;;11.60;99.90;;;;;;5109757;28;20014;-81
2021/12/31 03:18:41;;;;;;;;;;;11.60;99.90;;;;;;5113660;28;19920;-81
2021/12/31 03:21:20;;;;;;;;;;;11.70;99.90;;;;;;5105096;28;19923;-80
2021/12/31 03:23:49;;;;;;;;;;;11.70;99.90;;;;;;5103452;28;20360;-80
2021/12/31 03:26:17;;;;;;;;;;;11.70;99.90;;;;;;5106493;28;20007;-80
2021/12/31 03:28:48;;;;;;;;;;;11.70;99.90;;;;;;5117755;28;19970;-81
2021/12/31 03:31:15;;;;;;;;;;;11.70;99.90;;;;;;5100337;28;19920;-81
2021/12/31 03:33:42;;;;;;;;;;;11.80;99.90;;;;;;5095641;28;19981;-81
2021/12/31 03:36:08;;;;;;;;;;;11.70;99.90;;;;;;5111217;28;20014;-81
2021/12/31 03:38:35;;;;;;;;;;;11.70;99.90;;;;;;5095760;28;20022;-81
2021/12/31 03:41:02;;;;;;;;;;;11.70;99.90;;;;;;5092775;28;19953;-80
2021/12/31 03:43:28;;;;;;;;;;;11.70;99.90;;;;;;5113128;27;19962;-81
2021/12/31 03:45:55;;;;;;;;;;;11.60;99.90;;;;;;5108727;27;19926;-81
2021/12/31 03:48:22;;;;;;;;;;;11.50;99.90;;;;;;5095151;28;19943;-81
2021/12/31 03:50:52;;;;;;;;;;;11.50;99.90;;;;;;5094728;28;19963;-81
2021/12/31 03:53:19;;;;;;;;;;;11.50;99.90;;;;;;5094457;28;19920;-81
2021/12/31 03:55:46;;;;;;;;;;;11.60;99.90;;;;;;5095017;28;19930;-81
2021/12/31 03:58:15;;;;;;;;;;;11.60;99.90;;;;;;5095246;28;19920;-81
2021/12/31 04:00:42;;;;;;;;;;;11.70;99.90;;;;;;5109477;28;20402;-82
2021/12/31 04:03:12;;;;;;;;;;;11.70;99.90;;;;;;5099386;28;19919;-81
2021/12/31 04:05:40;;;;;;;;;;;11.70;99.90;;;;;;5115000;28;20003;-81
2021/12/31 04:08:10;;;;;;;;;;;11.60;99.90;;;;;;5115985;28;19926;-81
2021/12/31 04:10:36;;;;;;;;;;;11.60;99.90;;;;;;5099169;28;20015;-80
2021/12/31 04:13:03;;;;;;;;;;;11.50;99.90;;;;;;5103926;28;20653;-80
2021/12/31 04:15:30;;;;;;;;;;;11.40;99.90;;;;;;5094696;28;19919;-80
2021/12/31 04:18:08;;;;;;;;;;;11.30;99.90;;;;;;5097407;28;19983;-81
2021/12/31 04:20:43;;;;;;;;;;;11.30;99.90;;;;;;5110676;28;19920;-80
2021/12/31 04:25:54;;;;;;;;;;;11.10;99.90;;;;;;5104997;27;19919;-81
2021/12/31 04:28:21;;;;;;;;;;;11.10;99.90;;;;;;5103749;28;19908;-81
2021/12/31 04:30:48;;;;;;;;;;;11.00;99.90;;;;;;5104480;28;19920;-81
2021/12/31 04:33:14;;;;;;;;;;;10.90;99.90;;;;;;5107075;28;19943;-80
2021/12/31 04:35:43;;;;;;;;;;;10.90;99.90;;;;;;5104799;27;19998;-81
2021/12/31 04:38:09;;;;;;;;;;;10.90;99.90;;;;;;5112854;28;19919;-81
2021/12/31 04:40:36;;;;;;;;;;;10.80;99.90;;;;;;5107151;28;19958;-81
2021/12/31 04:43:03;;;;;;;;;;;10.70;99.90;;;;;;5094124;28;20370;-81
2021/12/31 04:45:30;;;;;;;;;;;10.60;99.90;;;;;;5094183;28;19924;-81
2021/12/31 04:47:57;;;;;;;;;;;10.50;99.90;;;;;;5093438;28;21734;-81
2021/12/31 04:50:23;;;;;;;;;;;10.50;99.90;;;;;;5096444;28;19919;-82
2021/12/31 04:52:50;;;;;;;;;;;10.40;99.90;;;;;;5093531;28;19920;-81
2021/12/31 04:55:17;;;;;;;;;;;10.30;99.90;;;;;;5097443;28;19920;-81
2021/12/31 04:57:47;;;;;;;;;;;10.20;99.90;;;;;;5094427;28;19920;-82
2021/12/31 05:00:15;;;;;;;;;;;10.00;99.90;;;;;;5094411;28;20457;-81
2021/12/31 05:02:41;;;;;;;;;;;9.90;99.90;;;;;;5101137;28;19926;-82
2021/12/31 05:05:08;;;;;;;;;;;9.70;99.90;;;;;;5102052;28;19924;-81
2021/12/31 05:07:35;;;;;;;;;;;9.70;99.90;;;;;;5093325;28;19924;-81
2021/12/31 05:10:02;;;;;;;;;;;9.60;99.90;;;;;;5108698;28;19919;-81
2021/12/31 05:12:32;;;;;;;;;;;9.50;99.90;;;;;;5107905;28;20034;-82
2021/12/31 05:15:01;;;;;;;;;;;9.50;99.90;;;;;;5102260;28;19971;-81
2021/12/31 05:17:28;;;;;;;;;;;9.50;99.90;;;;;;5104283;28;20431;-81
2021/12/31 05:19:55;;;;;;;;;;;9.40;99.90;;;;;;5104326;28;20006;-80
2021/12/31 05:22:22;;;;;;;;;;;9.40;99.90;;;;;;5093087;28;19934;-81
2021/12/31 05:24:48;;;;;;;;;;;9.30;99.90;;;;;;5093346;28;20400;-81
2021/12/31 05:27:15;;;;;;;;;;;9.20;99.90;;;;;;5093584;28;19936;-80
2021/12/31 05:29:41;;;;;;;;;;;9.20;99.90;;;;;;5091719;28;19920;-80
2021/12/31 05:32:08;;;;;;;;;;;9.10;99.90;;;;;;5096404;28;19920;-81
2021/12/31 05:34:38;;;;;;;;;;;9.10;99.90;;;;;;5092126;28;19959;-81
2021/12/31 05:37:05;;;;;;;;;;;9.10;99.90;;;;;;5097538;28;20364;-82
2021/12/31 05:39:32;;;;;;;;;;;9.00;99.90;;;;;;5094669;28;20370;-82
2021/12/31 05:41:58;;;;;;;;;;;8.90;99.90;;;;;;5103761;28;19980;-82
2021/12/31 05:44:25;;;;;;;;;;;8.90;99.90;;;;;;5114227;27;19920;-81
2021/12/31 05:46:53;;;;;;;;;;;8.80;99.90;;;;;;5112805;27;19923;-82
2021/12/31 05:49:27;;;;;;;;;;;8.70;99.90;;;;;;5122369;27;20014;-82
2021/12/31 05:51:54;;;;;;;;;;;8.70;99.90;;;;;;5113652;27;20026;-81
2021/12/31 05:54:21;;;;;;;;;;;8.70;99.90;;;;;;5102311;28;20006;-81
2021/12/31 05:56:48;;;;;;;;;;;8.60;99.90;;;;;;5091840;28;20015;-82
2021/12/31 05:59:15;;;;;;;;;;;8.60;99.90;;;;;;5111387;28;20604;-80
2021/12/31 06:01:45;;;;;;;;;;;8.70;99.90;;;;;;5107531;27;19927;-81
2021/12/31 06:04:12;;;;;;;;;;;8.60;99.90;;;;;;5092535;28;19926;-82
2021/12/31 06:06:39;;;;;;;;;;;8.60;99.90;;;;;;5096624;28;19950;-82
2021/12/31 06:09:06;;;;;;;;;;;8.50;99.90;;;;;;5100405;28;19934;-82
2021/12/31 06:11:33;;;;;;;;;;;8.40;99.90;;;;;;5103984;28;20006;-82
2021/12/31 06:14:04;;;;;;;;;;;8.40;99.90;;;;;;5093481;27;19927;-81
2021/12/31 06:16:42;;;;;;;;;;;8.50;99.90;;;;;;5093912;28;20010;-82
2021/12/31 06:19:10;;;;;;;;;;;8.50;99.90;;;;;;5096399;28;20530;-81
2021/12/31 06:21:41;;;;;;;;;;;8.50;99.90;;;;;;5098061;28;20533;-81
2021/12/31 06:24:09;;;;;;;;;;;8.50;99.90;;;;;;5093765;28;19955;-81
2021/12/31 06:26:36;;;;;;;;;;;8.50;99.90;;;;;;5092950;28;20447;-81
2021/12/31 06:29:08;;;;;;;;;;;8.50;99.90;;;;;;5093786;28;19927;-81
2021/12/31 06:31:34;;;;;;;;;;;8.50;99.90;;;;;;5101350;28;19974;-81
2021/12/31 06:34:01;;;;;;;;;;;8.30;99.90;;;;;;5105382;28;19926;-81
2021/12/31 06:36:28;;;;;;;;;;;8.10;99.90;;;;;;5109370;28;19926;-81
2021/12/31 06:38:57;;;;;;;;;;;7.90;99.90;;;;;;5101715;28;20045;-80
2021/12/31 06:41:23;;;;;;;;;;;7.80;99.90;;;;;;5110328;28;19919;-81
2021/12/31 06:43:50;;;;;;;;;;;7.80;99.90;;;;;;5091514;28;19920;-80
2021/12/31 06:46:17;;;;;;;;;;;7.60;99.90;;;;;;5104107;28;19920;-79
2021/12/31 06:48:44;;;;;;;;;;;7.50;99.90;;;;;;5093373;28;19924;-79
2021/12/31 06:51:34;;;;;;;;;;;7.40;99.90;;;;;;5092293;28;19946;-78
2021/12/31 06:54:00;;;;;;;;;;;7.30;99.90;;;;;;5091517;28;20285;-78
2021/12/31 06:56:27;;;;;;;;;;;7.20;99.90;;;;;;5093261;28;19920;-78
2021/12/31 06:58:54;;;;;;;;;;;7.20;99.90;;;;;;5103794;28;19955;-78
2021/12/31 07:01:21;;;;;;;;;;;7.10;99.90;;;;;;5102100;28;19942;-78
2021/12/31 07:03:48;;;;;;;;;;;7.00;99.90;;;;;;5109829;28;19949;-79
2021/12/31 07:06:14;;;;;;;;;;;6.90;99.90;;;;;;5099679;28;20003;-79
2021/12/31 07:08:41;;;;;;;;;;;6.90;99.90;;;;;;5096309;28;19962;-79
2021/12/31 07:11:08;;;;;;;;;;;7.00;99.90;;;;;;5107770;28;19919;-79
2021/12/31 07:13:35;;;;;;;;;;;7.10;99.90;;;;;;5104079;28;20003;-79
2021/12/31 07:16:02;;;;;;;;;;;7.10;99.90;;;;;;5096792;28;19951;-79
2021/12/31 07:18:29;;;;;;;;;;;7.10;99.90;;;;;;5113241;27;19920;-79
2021/12/31 07:20:56;;;;;;;;;;;7.10;99.90;;;;;;5098888;27;19945;-79
2021/12/31 07:23:22;;;;;;;;;;;7.00;99.90;;;;;;5098806;27;19927;-79
2021/12/31 07:25:52;;;;;;;;;;;7.10;99.90;;;;;;5110658;28;19923;-79
2021/12/31 07:28:19;;;;;;;;;;;7.10;99.90;;;;;;5112135;27;20382;-79
2021/12/31 07:30:46;;;;;;;;;;;7.20;99.90;;;;;;5102265;28;20011;-79
2021/12/31 07:33:14;;;;;;;;;;;7.30;99.90;;;;;;5097936;28;19920;-79
2021/12/31 07:35:41;;;;;;;;;;;7.40;99.90;;;;;;5095437;28;20002;-79
2021/12/31 07:38:11;;;;;;;;;;;7.40;99.90;;;;;;5094059;28;19955;-79
2021/12/31 07:40:39;;;;;;;;;;;7.30;99.90;;;;;;5096305;28;19920;-79
2021/12/31 07:43:07;;;;;;;;;;;7.20;99.90;;;;;;5095694;28;19920;-79
2021/12/31 07:45:33;;;;;;;;;;;7.30;99.90;;;;;;5095623;28;19919;-79
2021/12/31 07:48:01;;;;;;;;;;;7.30;99.90;;;;;;5105752;28;20420;-79
2021/12/31 07:50:31;;;;;;;;;;;7.30;99.90;;;;;;5103251;28;19997;-79
2021/12/31 07:52:57;;;;;;;;;;;7.30;99.90;;;;;;5109745;28;19924;-80
2021/12/31 07:55:24;;;;;;;;;;;7.40;99.90;;;;;;5108151;28;19959;-79
2021/12/31 07:57:51;;;;;;;;;;;7.40;99.90;;;;;;5102512;28;19937;-80
2021/12/31 08:00:18;;;;;;;;;;;7.50;99.90;;;;;;5103118;28;19920;-81
2021/12/31 08:02:44;;;;;;;;;;;7.60;99.90;;;;;;5107071;28;20018;-81
2021/12/31 08:05:11;;;;;;;;;;;7.80;99.90;;;;;;5101434;28;20362;-81
2021/12/31 08:07:38;;;;;;;;;;;7.90;99.90;;;;;;5105359;28;19998;-79
2021/12/31 08:10:05;;;;;;;;;;;8.00;99.90;;;;;;5111306;28;19919;-80
2021/12/31 08:12:51;;;;;;;;;;;8.10;99.90;;;;;;5102648;27;19927;-79
2021/12/31 08:15:18;;;;;;;;;;;8.40;99.90;;;;;;5106930;28;19920;-80
2021/12/31 08:17:45;;;;;;;;;;;8.60;99.90;;;;;;5096874;28;19920;-79
2021/12/31 08:20:11;;;;;;;;;;;8.80;99.90;;;;;;5102523;28;20018;-79
2021/12/31 08:22:38;;;;;;;;;;;9.10;99.90;;;;;;5100489;28;19991;-79
2021/12/31 08:25:05;;;;;;;;;;;9.10;99.90;;;;;;5095661;28;19934;-80
2021/12/31 08:27:33;;;;;;;;;;;9.20;99.90;;;;;;5097275;28;19927;-81
2021/12/31 08:29:59;;;;;;;;;;;9.30;99.90;;;;;;5103253;28;20178;-81
2021/12/31 08:32:26;;;;;;;;;;;9.40;99.90;;;;;;5101293;28;19926;-81
2021/12/31 08:34:53;;;;;;;;;;;9.50;99.90;;;;;;5101914;27;19948;-81
2021/12/31 08:37:19;;;;;;;;;;;9.70;99.90;;;;;;5108470;27;19923;-82
2021/12/31 08:39:46;;;;;;;;;;;10.00;99.90;;;;;;5101045;28;19920;-82
2021/12/31 08:42:13;;;;;;;;;;;10.00;99.90;;;;;;5122044;27;20540;-82
2021/12/31 08:44:39;;;;;;;;;;;9.90;99.90;;;;;;5108809;28;20370;-79
2021/12/31 08:47:06;;;;;;;;;;;9.80;99.90;;;;;;5098687;28;20014;-80
2021/12/31 08:49:33;;;;;;;;;;;9.90;99.90;;;;;;5102734;28;19951;-80
2021/12/31 08:52:02;;;;;;;;;;;10.00;99.90;;;;;;5109477;28;20442;-80
2021/12/31 08:54:29;;;;;;;;;;;10.10;99.90;;;;;;5103817;27;19919;-80
2021/12/31 08:56:55;;;;;;;;;;;10.20;99.90;;;;;;5097774;28;19923;-79
2021/12/31 08:59:22;;;;;;;;;;;10.30;99.90;;;;;;5097678;28;20003;-80
2021/12/31 09:01:49;;;;;;;;;;;10.40;99.90;;;;;;5103680;28;19920;-80
2021/12/31 09:04:15;;;;;;;;;;;10.50;99.90;;;;;;5101119;28;19919;-80
2021/12/31 09:06:42;;;;;;;;;;;10.60;99.90;;;;;;5111302;28;19920;-80
2021/12/31 09:09:09;;;;;;;;;;;10.70;99.90;;;;;;5107910;28;19998;-80
2021/12/31 09:11:36;;;;;;;;;;;10.70;99.90;;;;;;5102673;28;19989;-80
2021/12/31 09:14:02;;;;;;;;;;;10.90;99.90;;;;;;5099420;27;20002;-80
2021/12/31 09:16:29;;;;;;;;;;;11.10;99.90;;;;;;5104144;28;19926;-80
2021/12/31 09:18:56;;;;;;;;;;;11.30;99.90;;;;;;5100467;28;19920;-80
2021/12/31 09:21:23;;;;;;;;;;;11.60;99.90;;;;;;5100796;28;19920;-80
2021/12/31 09:23:49;;;;;;;;;;;11.80;99.90;;;;;;5095248;28;19930;-80
2021/12/31 09:26:16;;;;;;;;;;;11.80;99.90;;;;;;5101116;28;19926;-77
2021/12/31 09:28:43;;;;;;;;;;;12.00;99.90;;;;;;5098566;28;19919;-79
2021/12/31 09:31:13;;;;;;;;;;;12.20;99.90;;;;;;5107306;28;19920;-82
2021/12/31 09:33:40;;;;;;;;;;;12.40;99.90;;;;;;5099461;27;19926;-82
2021/12/31 09:36:07;;;;;;;;;;;12.70;99.90;;;;;;5098734;27;19947;-83
2021/12/31 09:38:34;;;;;;;;;;;12.90;99.90;;;;;;5095373;28;19936;-81
2021/12/31 09:41:00;;;;;;;;;;;13.30;99.90;;;;;;5102982;28;20293;-82
2021/12/31 09:43:29;;;;;;;;;;;13.50;99.90;;;;;;5101629;28;20046;-82
2021/12/31 09:45:58;;;;;;;;;;;13.70;99.90;;;;;;5099146;28;20378;-82
2021/12/31 09:48:28;;;;;;;;;;;13.60;99.90;;;;;;5094673;28;19928;-82
2021/12/31 09:50:55;;;;;;;;;;;13.90;99.90;;;;;;5099316;27;20392;-82
2021/12/31 09:53:27;;;;;;;;;;;14.20;99.90;;;;;;5108085;27;19926;-80
2021/12/31 09:55:54;;;;;;;;;;;14.60;99.90;;;;;;5100172;28;19928;-80
2021/12/31 09:58:24;;;;;;;;;;;14.80;99.90;;;;;;5092448;28;20031;-80
2021/12/31 10:00:52;;;;;;;;;;;15.20;99.90;;;;;;5096451;28;19926;-80
2021/12/31 10:03:28;;;;;;;;;;;15.70;99.90;;;;;;5110314;28;20320;-80
2021/12/31 10:06:13;;;;;;;;;;;15.90;99.90;;;;;;5095424;28;19987;-79
2021/12/31 10:08:42;;;;;;;;;;;16.10;99.90;;;;;;5091787;28;20015;-79
2021/12/31 10:11:17;;;;;;;;;;;15.70;99.90;;;;;;5103500;28;20425;-79
2021/12/31 10:13:45;;;;;;;;;;;15.40;99.90;;;;;;5097118;28;20602;-79
2021/12/31 10:16:39;;;;;;;;;;;15.20;99.90;;;;;;5105630;28;19920;-79
2021/12/31 10:19:07;;;;;;;;;;;15.20;99.90;;;;;;5102043;28;19919;-80
2021/12/31 10:21:40;;;;;;;;;;;14.90;99.90;;;;;;5101260;27;19942;-79
2021/12/31 10:24:22;;;;;;;;;;;15.00;99.90;;;;;;5105837;28;20533;-79
2021/12/31 10:26:50;;;;;;;;;;;15.30;99.90;;;;;;5097395;28;20017;-79
2021/12/31 10:29:17;;;;;;;;;;;15.80;99.90;;;;;;5099175;28;19928;-79
2021/12/31 10:31:45;;;;;;;;;;;16.10;99.90;;;;;;5113015;27;19926;-79
2021/12/31 10:34:31;;;;;;;;;;;16.00;99.90;;;;;;5108530;28;20315;-79
2021/12/31 10:37:02;;;;;;;;;;;15.70;99.90;;;;;;5107122;28;20366;-79
2021/12/31 10:39:37;;;;;;;;;;;15.70;99.90;;;;;;5103620;28;19923;-79
2021/12/31 10:42:05;;;;;;;;;;;15.50;99.90;;;;;;5099274;28;19927;-79
2021/12/31 10:44:46;;;;;;;;;;;15.80;99.90;;;;;;5103621;27;20006;-78
2021/12/31 10:47:17;;;;;;;;;;;15.30;99.90;;;;;;5096007;28;19920;-79
2021/12/31 10:49:59;;;;;;;;;;;15.10;99.90;;;;;;5104512;28;19919;-79
2021/12/31 10:52:34;;;;;;;;;;;15.30;99.90;;;;;;5111226;28;19927;-79
2021/12/31 10:55:24;;;;;;;;;;;15.80;99.90;;;;;;5111531;28;19920;-79
2021/12/31 10:57:54;;;;;;;;;;;16.70;99.90;;;;;;5098057;28;19923;-78
2021/12/31 11:00:21;;;;;;;;;;;16.70;99.90;;;;;;5106203;28;19927;-79
2021/12/31 11:02:48;;;;;;;;;;;16.20;99.90;;;;;;5096386;28;19920;-81
2021/12/31 11:05:24;;;;;;;;;;;16.10;99.90;;;;;;5103155;28;19951;-83
2021/12/31 11:07:56;;;;;;;;;;;16.20;99.90;;;;;;5098256;28;19927;-79
2021/12/31 11:10:36;;;;;;;;;;;16.10;99.90;;;;;;5098837;28;19936;-79
2021/12/31 11:13:08;;;;;;;;;;;15.70;99.90;;;;;;5104008;28;19926;-79
2021/12/31 11:15:37;;;;;;;;;;;15.30;99.90;;;;;;5106848;28;19963;-79
2021/12/31 11:18:05;;;;;;;;;;;14.80;99.90;;;;;;5106375;27;19930;-77
2021/12/31 11:20:32;;;;;;;;;;;14.10;99.90;;;;;;5104249;27;19959;-77
2021/12/31 11:23:00;;;;;;;;;;;13.50;99.90;;;;;;5117204;27;20372;-76
2021/12/31 11:25:57;;;;;;;;;;;13.10;99.90;;;;;;5107988;27;19924;-77
2021/12/31 11:28:30;;;;;;;;;;;13.00;99.90;;;;;;5113711;27;19919;-75
2021/12/31 11:31:17;;;;;;;;;;;13.10;99.90;;;;;;5098333;28;20304;-77
2021/12/31 11:33:46;;;;;;;;;;;13.10;99.90;;;;;;5103765;28;19942;-79
2021/12/31 11:36:13;;;;;;;;;;;13.20;99.90;;;;;;5118804;27;19923;-80
2021/12/31 11:38:44;;;;;;;;;;;13.20;99.90;;;;;;5103581;28;19927;-78
2021/12/31 11:41:14;;;;;;;;;;;13.20;99.90;;;;;;5102731;28;19927;-78
2021/12/31 11:43:42;;;;;;;;;;;13.40;99.90;;;;;;5099367;28;19924;-78
2021/12/31 11:46:09;;;;;;;;;;;13.50;99.90;;;;;;5107686;28;20015;-80
2021/12/31 11:48:46;;;;;;;;;;;13.50;99.90;;;;;;5100185;28;19969;-79
2021/12/31 11:51:12;;;;;;;;;;;13.50;99.90;;;;;;5111946;27;20039;-77
2021/12/31 11:53:59;;;;;;;;;;;13.40;99.90;;;;;;5106714;27;19924;-77
2021/12/31 11:56:47;;;;;;;;;;;13.30;99.90;;;;;;5100662;27;20007;-77
2021/12/31 11:59:19;;;;;;;;;;;13.10;99.90;;;;;;5101258;28;19920;-80
2021/12/31 12:01:47;;;;;;;;;;;13.00;99.90;;;;;;5096447;28;20317;-81
2021/12/31 12:04:17;;;;;;;;;;;12.80;99.90;;;;;;5095710;28;20294;-79
2021/12/31 12:07:02;;;;;;;;;;;12.70;99.90;;;;;;5094559;28;19927;-80
2021/12/31 12:09:35;;;;;;;;;;;12.70;99.90;;;;;;5108404;28;20429;-81
2021/12/31 12:12:10;;;;;;;;;;;12.70;99.90;;;;;;5108571;28;19924;-80
2021/12/31 12:14:51;;;;;;;;;;;12.70;99.90;;;;;;5098754;28;20370;-80
2021/12/31 12:17:39;;;;;;;;;;;12.70;99.90;;;;;;5109121;28;19985;-80
2021/12/31 12:20:06;;;;;;;;;;;12.60;99.90;;;;;;5100473;28;19994;-80
2021/12/31 12:22:40;;;;;;;;;;;12.60;99.90;;;;;;5104694;28;19963;-81
2021/12/31 12:25:16;;;;;;;;;;;12.70;99.90;;;;;;5103560;28;20450;-78
2021/12/31 12:27:43;;;;;;;;;;;12.80;99.90;;;;;;5111659;27;19935;-79
2021/12/31 12:30:13;;;;;;;;;;;13.00;99.90;;;;;;5096823;27;20018;-79
2021/12/31 12:35:16;;;;;;;;;;;13.30;99.90;;;;;;5103875;28;19924;-80
2021/12/31 12:37:43;;;;;;;;;;;13.50;99.90;;;;;;5094557;28;19978;-80
2021/12/31 12:40:13;;;;;;;;;;;13.50;99.90;;;;;;5093255;28;20015;-79
2021/12/31 12:42:59;;;;;;;;;;;13.60;99.90;;;;;;5098378;28;19920;-78
2021/12/31 12:45:26;;;;;;;;;;;13.60;99.90;;;;;;5098461;27;19963;-79
2021/12/31 12:48:07;;;;;;;;;;;13.50;99.90;;;;;;5094015;28;19927;-78
2021/12/31 12:50:35;;;;;;;;;;;13.50;99.90;;;;;;5097681;27;19920;-78
2021/12/31 12:53:02;;;;;;;;;;;13.60;99.90;;;;;;5100036;27;20362;-79
2021/12/31 12:55:32;;;;;;;;;;;13.70;99.90;;;;;;5094698;27;19924;-81
2021/12/31 12:58:00;;;;;;;;;;;13.80;99.90;;;;;;5103671;28;20018;-79
2021/12/31 13:00:38;;;;;;;;;;;13.60;99.90;;;;;;5107423;28;19962;-78
2021/12/31 13:03:09;;;;;;;;;;;13.40;99.90;;;;;;5109470;27;19927;-78
2021/12/31 13:05:37;;;;;;;;;;;13.20;99.90;;;;;;5109978;28;20390;-78
2021/12/31 13:08:06;;;;;;;;;;;13.00;99.90;;;;;;5102378;28;19920;-78
2021/12/31 13:10:33;;;;;;;;;;;12.80;99.90;;;;;;5096383;28;19928;-79
2021/12/31 13:13:03;;;;;;;;;;;12.80;99.90;;;;;;5112420;28;19955;-78
2021/12/31 13:15:30;;;;;;;;;;;12.70;99.90;;;;;;5096474;28;19998;-79
2021/12/31 13:17:58;;;;;;;;;;;12.50;99.90;;;;;;5110776;28;19926;-79
2021/12/31 13:20:25;;;;;;;;;;;12.40;99.90;;;;;;5100719;28;19985;-81
2021/12/31 13:22:56;;;;;;;;;;;12.30;99.90;;;;;;5114145;28;20385;-79
2021/12/31 13:25:39;;;;;;;;;;;12.10;99.90;;;;;;5098447;28;19920;-80
2021/12/31 13:28:14;;;;;;;;;;;12.00;99.90;;;;;;5105941;27;20029;-78
2021/12/31 13:30:47;;;;;;;;;;;11.90;99.90;;;;;;5105309;27;19919;-79
2021/12/31 13:33:30;;;;;;;;;;;12.00;99.90;;;;;;5105150;28;19926;-79
2021/12/31 13:36:23;;;;;;;;;;;12.00;99.90;;;;;;5106235;27;19972;-79
2021/12/31 13:39:15;;;;;;;;;;;12.10;99.90;;;;;;5103346;28;19965;-79
2021/12/31 13:41:48;;;;;;;;;;;12.20;99.90;;;;;;5102122;28;19920;-79
2021/12/31 13:44:23;;;;;;;;;;;12.50;99.90;;;;;;5093380;28;19960;-78
2021/12/31 13:46:57;;;;;;;;;;;12.50;99.90;;;;;;5107429;28;19927;-79
2021/12/31 13:49:24;;;;;;;;;;;12.50;99.90;;;;;;5103223;28;20007;-79
2021/12/31 13:51:51;;;;;;;;;;;12.50;99.90;;;;;;5104323;28;19938;-79
2021/12/31 13:54:33;;;;;;;;;;;12.60;99.90;;;;;;5098460;28;19924;-79
2021/12/31 13:57:02;;;;;;;;;;;12.50;99.90;;;;;;5094683;28;20460;-79
2021/12/31 13:59:37;;;;;;;;;;;12.30;99.90;;;;;;5091670;28;19920;-79
2021/12/31 14:02:06;;;;;;;;;;;12.20;99.90;;;;;;5104840;28;19960;-79
2021/12/31 14:04:35;;;;;;;;;;;12.30;99.90;;;;;;5093987;28;20025;-79
2021/12/31 14:07:20;;;;;;;;;;;12.30;99.90;;;;;;5108786;27;19926;-79
2021/12/31 14:09:48;;;;;;;;;;;12.40;99.90;;;;;;5118976;27;19919;-79
2021/12/31 14:12:19;;;;;;;;;;;12.60;99.90;;;;;;5091702;28;19927;-79
2021/12/31 14:14:45;;;;;;;;;;;12.80;99.90;;;;;;5091509;28;19920;-79
2021/12/31 14:17:12;;;;;;;;;;;12.70;99.90;;;;;;5092723;28;19920;-79
2021/12/31 14:19:40;;;;;;;;;;;12.60;99.90;;;;;;5092774;28;20334;-79
2021/12/31 14:22:28;;;;;;;;;;;12.50;99.90;;;;;;5091309;28;19989;-79
2021/12/31 14:24:55;;;;;;;;;;;12.30;99.90;;;;;;5095039;28;19920;-79
2021/12/31 14:27:22;;;;;;;;;;;12.20;99.90;;;;;;5091519;28;20019;-79
2021/12/31 14:29:54;;;;;;;;;;;12.10;99.90;;;;;;5092514;28;19920;-79
2021/12/31 14:32:21;;;;;;;;;;;12.00;99.90;;;;;;5092433;28;20383;-79
2021/12/31 14:34:52;;;;;;;;;;;12.00;99.90;;;;;;5090827;28;19983;-79
2021/12/31 14:37:19;;;;;;;;;;;12.00;99.90;;;;;;5099930;28;19955;-79
2021/12/31 14:39:55;;;;;;;;;;;11.80;99.90;;;;;;5117811;27;19926;-79
2021/12/31 14:42:22;;;;;;;;;;;11.80;99.90;;;;;;5125856;27;19919;-79